Racine, WI

11:00 PM CST on March 06, 2015 (GMT -0600)
Batten | Change Station
CLOSE
Current Station
Airport
Location: Racine,
Elevation: 673 ft
Nearby Weather Stations

Elev 673 ft 42.76 °N, 87.81 °W | Updated 7 minutes ago

Clear
Clear
24 °F
Feels Like 15 °F
N
8
Wind Variable Wind from SW

Today
High -- | Low -- °F
--% Chance of Precip.
Yesterday
High -- | Low -- °F
Precip. -- in
6:19 AM 5:46 PM
Full, 98% visible
Pressure 30.16 in
Visibility 8.0 miles
Clouds Clear
Windchill 15 °F
Dew Point 16 °F
Humidity 71%
Rainfall 0.00 in
Snow Depth Not available.
UV 0 out of 12
Pollen .50 out of 12
Air Quality Not available.
Flu Activity Not available.
METAR KRAC 070453Z AUTO 23007KT 8SM CLR M04/M09 A3012 RMK AO2 SLP211 T10441089

More Conditions Fewer Conditions

Pressure 30.16 in
Visibility 8.0 miles
Clouds Clear
Windchill 15 °F
Dew Point 16 °F
Humidity 71%
Rainfall 0.00 in
Snow Depth Not available.
UV 0 out of 12
Pollen .50 out of 12
Air Quality Not available.
Flu Activity Not available.
METAR KRAC 070453Z AUTO 23007KT 8SM CLR M04/M09 A3012 RMK AO2 SLP211 T10441089

More Conditions Fewer Conditions

10-Day Weather Forecast

Almanac

Astronomy

Mar. 06, 2015 Rise Set
Actual Time
Civil Twilight
Nautical Twilight
Astronomical Twilight
Moon
Length of Visible Light
Length of Day
Tomorrow will be .
, % of the Moon is Illuminated

Today's Extremes

State Highs State Lows

Community

WunderPhotos

Upload Photos

1,803,548 photos uploaded!

WunderBlogs® & News

Nearby

Air Quality

  Air Quality AQ Index Pollutant
Not available.

Snow Depth

Station Depth Elevation

Earthquake Activity

City Distance Mag. Time & Date
Minimum magnitude displayed is 2.5.

Coastal Water Temperatures

Place Temperature

Nearby Weather Stations